sensor_id;sensor_type;location;lat;lon;timestamp;P1;durP1;ratioP1;P2;durP2;ratioP2
51612;SDS011;37694;51.748;14.326;2023-04-06T00:01:37;12.60;;;10.77;;
51612;SDS011;37694;51.748;14.326;2023-04-06T00:04:03;13.48;;;10.75;;
51612;SDS011;37694;51.748;14.326;2023-04-06T00:06:28;12.48;;;10.65;;
51612;SDS011;37694;51.748;14.326;2023-04-06T00:08:55;13.30;;;10.45;;
51612;SDS011;37694;51.748;14.326;2023-04-06T00:11:21;13.27;;;11.05;;
51612;SDS011;37694;51.748;14.326;2023-04-06T00:13:47;13.82;;;10.07;;
51612;SDS011;37694;51.748;14.326;2023-04-06T00:16:13;13.38;;;11.32;;
51612;SDS011;37694;51.748;14.326;2023-04-06T00:18:39;12.52;;;11.23;;
51612;SDS011;37694;51.748;14.326;2023-04-06T00:21:05;12.65;;;11.27;;
51612;SDS011;37694;51.748;14.326;2023-04-06T00:23:31;15.63;;;11.35;;
51612;SDS011;37694;51.748;14.326;2023-04-06T00:25:57;15.80;;;10.20;;
51612;SDS011;37694;51.748;14.326;2023-04-06T00:28:22;11.52;;;10.32;;
51612;SDS011;37694;51.748;14.326;2023-04-06T00:30:52;15.55;;;11.05;;
51612;SDS011;37694;51.748;14.326;2023-04-06T00:33:20;12.98;;;10.40;;
51612;SDS011;37694;51.748;14.326;2023-04-06T00:35:46;13.38;;;11.02;;
51612;SDS011;37694;51.748;14.326;2023-04-06T00:38:11;12.85;;;10.18;;
51612;SDS011;37694;51.748;14.326;2023-04-06T00:40:37;18.40;;;10.57;;
51612;SDS011;37694;51.748;14.326;2023-04-06T00:43:05;12.02;;;10.35;;
51612;SDS011;37694;51.748;14.326;2023-04-06T00:45:31;13.43;;;10.35;;
51612;SDS011;37694;51.748;14.326;2023-04-06T00:47:58;11.52;;;10.27;;
51612;SDS011;37694;51.748;14.326;2023-04-06T00:50:24;12.13;;;10.23;;
51612;SDS011;37694;51.748;14.326;2023-04-06T00:52:50;12.95;;;10.40;;
51612;SDS011;37694;51.748;14.326;2023-04-06T00:55:16;12.27;;;10.05;;
51612;SDS011;37694;51.748;14.326;2023-04-06T00:57:42;11.85;;;10.07;;
51612;SDS011;37694;51.748;14.326;2023-04-06T01:00:08;10.63;;;8.95;;
51612;SDS011;37694;51.748;14.326;2023-04-06T01:02:35;11.45;;;10.23;;
51612;SDS011;37694;51.748;14.326;2023-04-06T01:05:01;11.63;;;10.27;;
51612;SDS011;37694;51.748;14.326;2023-04-06T01:07:27;11.77;;;9.98;;
51612;SDS011;37694;51.748;14.326;2023-04-06T01:09:56;13.65;;;10.10;;
51612;SDS011;37694;51.748;14.326;2023-04-06T01:12:21;13.30;;;9.98;;
51612;SDS011;37694;51.748;14.326;2023-04-06T01:14:47;12.25;;;10.15;;
51612;SDS011;37694;51.748;14.326;2023-04-06T01:17:13;13.30;;;10.55;;
51612;SDS011;37694;51.748;14.326;2023-04-06T01:19:39;12.30;;;9.60;;
51612;SDS011;37694;51.748;14.326;2023-04-06T01:22:13;11.00;;;9.05;;
51612;SDS011;37694;51.748;14.326;2023-04-06T01:24:40;11.30;;;10.10;;
51612;SDS011;37694;51.748;14.326;2023-04-06T01:27:05;13.70;;;9.90;;
51612;SDS011;37694;51.748;14.326;2023-04-06T01:29:31;11.27;;;9.20;;
51612;SDS011;37694;51.748;14.326;2023-04-06T01:31:57;11.05;;;9.13;;
51612;SDS011;37694;51.748;14.326;2023-04-06T01:34:23;10.88;;;9.45;;
51612;SDS011;37694;51.748;14.326;2023-04-06T01:36:48;12.23;;;9.35;;
51612;SDS011;37694;51.748;14.326;2023-04-06T01:39:14;12.05;;;10.15;;
51612;SDS011;37694;51.748;14.326;2023-04-06T01:41:40;14.75;;;9.80;;
51612;SDS011;37694;51.748;14.326;2023-04-06T01:44:06;10.68;;;9.25;;
51612;SDS011;37694;51.748;14.326;2023-04-06T01:46:32;11.45;;;9.65;;
51612;SDS011;37694;51.748;14.326;2023-04-06T01:48:57;11.50;;;10.30;;
51612;SDS011;37694;51.748;14.326;2023-04-06T01:51:23;10.40;;;9.40;;
51612;SDS011;37694;51.748;14.326;2023-04-06T01:53:50;10.40;;;9.30;;
51612;SDS011;37694;51.748;14.326;2023-04-06T01:56:15;9.93;;;8.93;;
51612;SDS011;37694;51.748;14.326;2023-04-06T01:58:41;11.02;;;9.82;;
51612;SDS011;37694;51.748;14.326;2023-04-06T02:01:07;12.10;;;9.60;;
51612;SDS011;37694;51.748;14.326;2023-04-06T02:03:33;12.27;;;9.10;;
51612;SDS011;37694;51.748;14.326;2023-04-06T02:05:58;12.82;;;9.27;;
51612;SDS011;37694;51.748;14.326;2023-04-06T02:08:24;10.38;;;8.70;;
51612;SDS011;37694;51.748;14.326;2023-04-06T02:10:50;12.43;;;9.32;;
51612;SDS011;37694;51.748;14.326;2023-04-06T02:13:16;11.48;;;8.70;;
51612;SDS011;37694;51.748;14.326;2023-04-06T02:15:42;10.73;;;9.05;;
51612;SDS011;37694;51.748;14.326;2023-04-06T02:18:07;12.32;;;9.05;;
51612;SDS011;37694;51.748;14.326;2023-04-06T02:20:34;9.32;;;8.02;;
51612;SDS011;37694;51.748;14.326;2023-04-06T02:23:00;10.52;;;8.63;;
51612;SDS011;37694;51.748;14.326;2023-04-06T02:25:25;12.45;;;9.02;;
51612;SDS011;37694;51.748;14.326;2023-04-06T02:27:51;9.75;;;8.75;;
51612;SDS011;37694;51.748;14.326;2023-04-06T02:30:17;10.38;;;8.45;;
51612;SDS011;37694;51.748;14.326;2023-04-06T02:32:43;9.10;;;8.20;;
51612;SDS011;37694;51.748;14.326;2023-04-06T02:35:08;10.07;;;9.02;;
51612;SDS011;37694;51.748;14.326;2023-04-06T02:37:34;10.48;;;8.57;;
51612;SDS011;37694;51.748;14.326;2023-04-06T02:40:00;9.65;;;8.65;;
51612;SDS011;37694;51.748;14.326;2023-04-06T02:42:25;9.70;;;8.23;;
51612;SDS011;37694;51.748;14.326;2023-04-06T02:44:51;8.93;;;7.50;;
51612;SDS011;37694;51.748;14.326;2023-04-06T02:47:17;9.57;;;8.27;;
51612;SDS011;37694;51.748;14.326;2023-04-06T02:49:43;9.55;;;8.35;;
51612;SDS011;37694;51.748;14.326;2023-04-06T02:52:08;12.00;;;8.57;;
51612;SDS011;37694;51.748;14.326;2023-04-06T02:54:34;10.00;;;8.02;;
51612;SDS011;37694;51.748;14.326;2023-04-06T02:57:00;10.20;;;8.20;;
51612;SDS011;37694;51.748;14.326;2023-04-06T02:59:25;11.60;;;8.48;;
51612;SDS011;37694;51.748;14.326;2023-04-06T03:01:51;9.50;;;8.50;;
51612;SDS011;37694;51.748;14.326;2023-04-06T03:04:17;8.60;;;7.60;;
51612;SDS011;37694;51.748;14.326;2023-04-06T03:06:42;8.85;;;7.70;;
51612;SDS011;37694;51.748;14.326;2023-04-06T03:09:08;9.02;;;8.13;;
51612;SDS011;37694;51.748;14.326;2023-04-06T03:11:34;9.00;;;8.07;;
51612;SDS011;37694;51.748;14.326;2023-04-06T03:14:00;9.75;;;8.02;;
51612;SDS011;37694;51.748;14.326;2023-04-06T03:16:25;9.15;;;7.75;;
51612;SDS011;37694;51.748;14.326;2023-04-06T03:18:51;7.85;;;6.78;;
51612;SDS011;37694;51.748;14.326;2023-04-06T03:21:17;10.13;;;7.30;;
51612;SDS011;37694;51.748;14.326;2023-04-06T03:23:44;8.77;;;7.65;;
51612;SDS011;37694;51.748;14.326;2023-04-06T03:26:10;11.68;;;7.55;;
51612;SDS011;37694;51.748;14.326;2023-04-06T03:28:36;10.27;;;7.40;;
51612;SDS011;37694;51.748;14.326;2023-04-06T03:31:01;7.97;;;7.05;;
51612;SDS011;37694;51.748;14.326;2023-04-06T03:33:27;8.73;;;7.53;;
51612;SDS011;37694;51.748;14.326;2023-04-06T03:35:53;7.97;;;7.18;;
51612;SDS011;37694;51.748;14.326;2023-04-06T03:38:19;7.90;;;7.05;;
51612;SDS011;37694;51.748;14.326;2023-04-06T03:40:45;8.57;;;7.07;;
51612;SDS011;37694;51.748;14.326;2023-04-06T03:43:11;9.88;;;7.25;;
51612;SDS011;37694;51.748;14.326;2023-04-06T03:45:37;7.30;;;6.60;;
51612;SDS011;37694;51.748;14.326;2023-04-06T03:48:03;8.15;;;7.18;;
51612;SDS011;37694;51.748;14.326;2023-04-06T03:50:29;8.30;;;6.70;;
51612;SDS011;37694;51.748;14.326;2023-04-06T03:52:55;8.43;;;7.05;;
51612;SDS011;37694;51.748;14.326;2023-04-06T03:55:21;7.55;;;6.75;;
51612;SDS011;37694;51.748;14.326;2023-04-06T03:57:47;7.75;;;6.95;;
51612;SDS011;37694;51.748;14.326;2023-04-06T04:00:13;7.57;;;6.78;;
51612;SDS011;37694;51.748;14.326;2023-04-06T04:02:39;9.50;;;6.82;;
51612;SDS011;37694;51.748;14.326;2023-04-06T04:05:05;8.38;;;6.22;;
51612;SDS011;37694;51.748;14.326;2023-04-06T04:07:31;6.97;;;6.00;;
51612;SDS011;37694;51.748;14.326;2023-04-06T04:09:57;7.72;;;6.80;;
51612;SDS011;37694;51.748;14.326;2023-04-06T04:12:22;7.63;;;6.10;;
51612;SDS011;37694;51.748;14.326;2023-04-06T04:14:48;7.68;;;6.85;;
51612;SDS011;37694;51.748;14.326;2023-04-06T04:17:14;7.63;;;6.60;;
51612;SDS011;37694;51.748;14.326;2023-04-06T04:19:40;6.72;;;6.13;;
51612;SDS011;37694;51.748;14.326;2023-04-06T04:22:05;7.25;;;6.40;;
51612;SDS011;37694;51.748;14.326;2023-04-06T04:24:31;6.63;;;5.72;;
51612;SDS011;37694;51.748;14.326;2023-04-06T04:26:58;7.13;;;6.43;;
51612;SDS011;37694;51.748;14.326;2023-04-06T04:29:25;8.10;;;5.90;;
51612;SDS011;37694;51.748;14.326;2023-04-06T04:31:51;7.65;;;5.93;;
51612;SDS011;37694;51.748;14.326;2023-04-06T04:34:17;7.35;;;6.22;;
51612;SDS011;37694;51.748;14.326;2023-04-06T04:36:45;10.27;;;6.10;;
51612;SDS011;37694;51.748;14.326;2023-04-06T04:39:11;8.02;;;5.63;;
51612;SDS011;37694;51.748;14.326;2023-04-06T04:41:37;6.18;;;5.57;;
51612;SDS011;37694;51.748;14.326;2023-04-06T04:44:03;6.35;;;5.75;;
51612;SDS011;37694;51.748;14.326;2023-04-06T04:46:29;6.70;;;5.90;;
51612;SDS011;37694;51.748;14.326;2023-04-06T04:48:54;5.22;;;4.72;;
51612;SDS011;37694;51.748;14.326;2023-04-06T04:51:20;6.20;;;5.43;;
51612;SDS011;37694;51.748;14.326;2023-04-06T04:53:46;6.35;;;5.70;;
51612;SDS011;37694;51.748;14.326;2023-04-06T04:56:12;9.18;;;5.47;;
51612;SDS011;37694;51.748;14.326;2023-04-06T04:58:37;8.00;;;5.85;;
51612;SDS011;37694;51.748;14.326;2023-04-06T05:01:03;6.00;;;5.40;;
51612;SDS011;37694;51.748;14.326;2023-04-06T05:03:29;10.55;;;5.93;;
51612;SDS011;37694;51.748;14.326;2023-04-06T05:05:55;8.40;;;5.75;;
51612;SDS011;37694;51.748;14.326;2023-04-06T05:08:21;7.22;;;5.43;;
51612;SDS011;37694;51.748;14.326;2023-04-06T05:10:47;10.63;;;5.80;;
51612;SDS011;37694;51.748;14.326;2023-04-06T05:13:13;45.40;;;13.23;;
51612;SDS011;37694;51.748;14.326;2023-04-06T05:15:39;45.80;;;12.98;;
51612;SDS011;37694;51.748;14.326;2023-04-06T05:18:06;39.00;;;10.93;;
51612;SDS011;37694;51.748;14.326;2023-04-06T05:20:33;42.72;;;10.80;;
51612;SDS011;37694;51.748;14.326;2023-04-06T05:22:59;32.70;;;10.13;;
51612;SDS011;37694;51.748;14.326;2023-04-06T05:25:25;49.72;;;10.40;;
51612;SDS011;37694;51.748;14.326;2023-04-06T05:27:51;29.95;;;11.15;;
51612;SDS011;37694;51.748;14.326;2023-04-06T05:30:17;34.55;;;10.48;;
51612;SDS011;37694;51.748;14.326;2023-04-06T05:32:43;31.95;;;9.15;;
51612;SDS011;37694;51.748;14.326;2023-04-06T05:35:09;31.05;;;8.98;;
51612;SDS011;37694;51.748;14.326;2023-04-06T05:37:37;24.70;;;9.35;;
51612;SDS011;37694;51.748;14.326;2023-04-06T05:40:03;37.70;;;9.35;;
51612;SDS011;37694;51.748;14.326;2023-04-06T05:42:36;39.30;;;10.02;;
51612;SDS011;37694;51.748;14.326;2023-04-06T05:45:03;33.83;;;8.50;;
51612;SDS011;37694;51.748;14.326;2023-04-06T05:47:30;46.95;;;10.40;;
51612;SDS011;37694;51.748;14.326;2023-04-06T05:49:56;30.80;;;8.55;;
51612;SDS011;37694;51.748;14.326;2023-04-06T05:52:21;36.10;;;9.15;;
51612;SDS011;37694;51.748;14.326;2023-04-06T05:54:47;45.20;;;9.00;;
51612;SDS011;37694;51.748;14.326;2023-04-06T05:57:13;46.40;;;9.32;;
51612;SDS011;37694;51.748;14.326;2023-04-06T05:59:38;34.15;;;8.25;;
51612;SDS011;37694;51.748;14.326;2023-04-06T06:02:04;30.65;;;7.10;;
51612;SDS011;37694;51.748;14.326;2023-04-06T06:04:30;45.72;;;7.38;;
51612;SDS011;37694;51.748;14.326;2023-04-06T06:06:56;33.72;;;7.63;;
51612;SDS011;37694;51.748;14.326;2023-04-06T06:09:22;27.85;;;8.88;;
51612;SDS011;37694;51.748;14.326;2023-04-06T06:11:48;23.83;;;8.00;;
51612;SDS011;37694;51.748;14.326;2023-04-06T06:14:14;31.73;;;7.28;;
51612;SDS011;37694;51.748;14.326;2023-04-06T06:16:40;16.55;;;6.78;;
51612;SDS011;37694;51.748;14.326;2023-04-06T06:19:06;22.98;;;7.57;;
51612;SDS011;37694;51.748;14.326;2023-04-06T06:21:32;31.10;;;7.80;;
51612;SDS011;37694;51.748;14.326;2023-04-06T06:23:57;18.45;;;6.22;;
51612;SDS011;37694;51.748;14.326;2023-04-06T06:26:23;27.00;;;7.00;;
51612;SDS011;37694;51.748;14.326;2023-04-06T06:28:49;24.13;;;7.35;;
51612;SDS011;37694;51.748;14.326;2023-04-06T06:31:15;22.98;;;8.15;;
51612;SDS011;37694;51.748;14.326;2023-04-06T06:33:41;22.00;;;7.60;;
51612;SDS011;37694;51.748;14.326;2023-04-06T06:36:06;24.65;;;8.20;;
51612;SDS011;37694;51.748;14.326;2023-04-06T06:38:32;22.65;;;7.25;;
51612;SDS011;37694;51.748;14.326;2023-04-06T06:40:58;20.33;;;6.90;;
51612;SDS011;37694;51.748;14.326;2023-04-06T06:43:24;24.58;;;7.55;;
51612;SDS011;37694;51.748;14.326;2023-04-06T06:45:49;16.95;;;7.07;;
51612;SDS011;37694;51.748;14.326;2023-04-06T06:48:15;21.02;;;6.30;;
51612;SDS011;37694;51.748;14.326;2023-04-06T06:50:41;18.15;;;7.93;;
51612;SDS011;37694;51.748;14.326;2023-04-06T06:53:07;11.70;;;6.00;;
51612;SDS011;37694;51.748;14.326;2023-04-06T06:55:32;26.20;;;7.95;;
51612;SDS011;37694;51.748;14.326;2023-04-06T06:57:58;18.50;;;7.57;;
51612;SDS011;37694;51.748;14.326;2023-04-06T07:00:24;11.05;;;6.80;;
51612;SDS011;37694;51.748;14.326;2023-04-06T07:02:49;17.73;;;7.35;;
51612;SDS011;37694;51.748;14.326;2023-04-06T07:05:15;17.75;;;7.47;;
51612;SDS011;37694;51.748;14.326;2023-04-06T07:07:41;14.88;;;6.32;;
51612;SDS011;37694;51.748;14.326;2023-04-06T07:10:07;20.13;;;7.18;;
51612;SDS011;37694;51.748;14.326;2023-04-06T07:12:33;18.80;;;6.95;;
51612;SDS011;37694;51.748;14.326;2023-04-06T07:14:59;12.45;;;7.13;;
51612;SDS011;37694;51.748;14.326;2023-04-06T07:17:25;21.48;;;7.55;;
51612;SDS011;37694;51.748;14.326;2023-04-06T07:19:51;16.42;;;7.82;;
51612;SDS011;37694;51.748;14.326;2023-04-06T07:22:17;13.98;;;7.00;;
51612;SDS011;37694;51.748;14.326;2023-04-06T07:24:43;15.70;;;7.78;;
51612;SDS011;37694;51.748;14.326;2023-04-06T07:27:08;20.58;;;6.30;;
51612;SDS011;37694;51.748;14.326;2023-04-06T07:29:34;16.17;;;6.78;;
51612;SDS011;37694;51.748;14.326;2023-04-06T07:32:00;13.40;;;6.60;;
51612;SDS011;37694;51.748;14.326;2023-04-06T07:34:26;16.88;;;6.32;;
51612;SDS011;37694;51.748;14.326;2023-04-06T07:36:51;9.55;;;6.53;;
51612;SDS011;37694;51.748;14.326;2023-04-06T07:39:18;9.55;;;5.95;;
51612;SDS011;37694;51.748;14.326;2023-04-06T07:41:45;16.33;;;6.72;;
51612;SDS011;37694;51.748;14.326;2023-04-06T07:44:11;10.00;;;5.82;;
51612;SDS011;37694;51.748;14.326;2023-04-06T07:46:36;15.25;;;7.28;;
51612;SDS011;37694;51.748;14.326;2023-04-06T07:49:02;14.10;;;6.53;;
51612;SDS011;37694;51.748;14.326;2023-04-06T07:51:29;10.25;;;6.43;;
51612;SDS011;37694;51.748;14.326;2023-04-06T07:53:55;17.05;;;6.70;;
51612;SDS011;37694;51.748;14.326;2023-04-06T07:56:21;10.57;;;6.18;;
51612;SDS011;37694;51.748;14.326;2023-04-06T07:58:47;10.25;;;6.18;;
51612;SDS011;37694;51.748;14.326;2023-04-06T08:01:12;12.88;;;6.32;;
51612;SDS011;37694;51.748;14.326;2023-04-06T08:03:38;12.25;;;6.72;;
51612;SDS011;37694;51.748;14.326;2023-04-06T08:06:04;9.80;;;5.80;;
51612;SDS011;37694;51.748;14.326;2023-04-06T08:08:30;18.27;;;6.38;;
51612;SDS011;37694;51.748;14.326;2023-04-06T08:10:56;8.23;;;5.78;;
51612;SDS011;37694;51.748;14.326;2023-04-06T08:13:22;12.43;;;5.80;;
51612;SDS011;37694;51.748;14.326;2023-04-06T08:15:47;10.63;;;6.45;;
51612;SDS011;37694;51.748;14.326;2023-04-06T08:18:13;7.93;;;5.40;;
51612;SDS011;37694;51.748;14.326;2023-04-06T08:20:39;10.57;;;6.10;;
51612;SDS011;37694;51.748;14.326;2023-04-06T08:23:05;10.15;;;5.43;;
51612;SDS011;37694;51.748;14.326;2023-04-06T08:25:33;10.30;;;5.95;;
51612;SDS011;37694;51.748;14.326;2023-04-06T08:28:00;11.18;;;5.95;;
51612;SDS011;37694;51.748;14.326;2023-04-06T08:30:26;11.38;;;5.80;;
51612;SDS011;37694;51.748;14.326;2023-04-06T08:32:52;13.50;;;5.55;;
51612;SDS011;37694;51.748;14.326;2023-04-06T08:35:18;9.68;;;5.70;;
51612;SDS011;37694;51.748;14.326;2023-04-06T08:37:44;10.73;;;6.13;;
51612;SDS011;37694;51.748;14.326;2023-04-06T08:40:10;10.75;;;6.15;;
51612;SDS011;37694;51.748;14.326;2023-04-06T08:42:39;8.65;;;6.00;;
51612;SDS011;37694;51.748;14.326;2023-04-06T08:45:08;9.18;;;5.80;;
51612;SDS011;37694;51.748;14.326;2023-04-06T08:47:35;10.75;;;5.63;;
51612;SDS011;37694;51.748;14.326;2023-04-06T08:50:05;12.27;;;5.20;;
51612;SDS011;37694;51.748;14.326;2023-04-06T08:52:32;12.38;;;6.15;;
51612;SDS011;37694;51.748;14.326;2023-04-06T08:55:01;7.68;;;5.72;;
51612;SDS011;37694;51.748;14.326;2023-04-06T08:57:28;10.95;;;6.15;;
51612;SDS011;37694;51.748;14.326;2023-04-06T08:59:55;9.57;;;5.72;;
51612;SDS011;37694;51.748;14.326;2023-04-06T09:02:22;8.82;;;5.07;;
51612;SDS011;37694;51.748;14.326;2023-04-06T09:04:48;13.35;;;5.63;;
51612;SDS011;37694;51.748;14.326;2023-04-06T09:07:17;8.00;;;5.13;;
51612;SDS011;37694;51.748;14.326;2023-04-06T09:09:43;7.43;;;5.10;;
51612;SDS011;37694;51.748;14.326;2023-04-06T09:12:29;17.95;;;5.78;;
51612;SDS011;37694;51.748;14.326;2023-04-06T09:14:56;7.13;;;5.03;;
51612;SDS011;37694;51.748;14.326;2023-04-06T09:17:26;9.93;;;5.28;;
51612;SDS011;37694;51.748;14.326;2023-04-06T09:19:53;11.25;;;5.05;;
51612;SDS011;37694;51.748;14.326;2023-04-06T09:22:19;6.60;;;5.00;;
51612;SDS011;37694;51.748;14.326;2023-04-06T09:24:46;6.75;;;4.60;;
51612;SDS011;37694;51.748;14.326;2023-04-06T09:27:13;5.65;;;4.88;;
51612;SDS011;37694;51.748;14.326;2023-04-06T09:29:43;11.18;;;5.88;;
51612;SDS011;37694;51.748;14.326;2023-04-06T09:32:09;6.13;;;4.70;;
51612;SDS011;37694;51.748;14.326;2023-04-06T09:34:39;4.95;;;4.32;;
51612;SDS011;37694;51.748;14.326;2023-04-06T09:37:18;10.50;;;5.20;;
51612;SDS011;37694;51.748;14.326;2023-04-06T09:39:45;8.25;;;4.57;;
51612;SDS011;37694;51.748;14.326;2023-04-06T09:42:26;7.95;;;4.68;;
51612;SDS011;37694;51.748;14.326;2023-04-06T09:44:52;7.00;;;4.70;;
51612;SDS011;37694;51.748;14.326;2023-04-06T09:47:17;7.60;;;4.57;;
51612;SDS011;37694;51.748;14.326;2023-04-06T09:49:45;6.15;;;4.53;;
51612;SDS011;37694;51.748;14.326;2023-04-06T09:52:15;9.48;;;4.57;;
51612;SDS011;37694;51.748;14.326;2023-04-06T09:54:43;9.93;;;4.57;;
51612;SDS011;37694;51.748;14.326;2023-04-06T10:02:47;8.40;;;4.50;;
51612;SDS011;37694;51.748;14.326;2023-04-06T10:08:06;12.07;;;4.72;;
51612;SDS011;37694;51.748;14.326;2023-04-06T10:10:34;8.00;;;4.85;;
51612;SDS011;37694;51.748;14.326;2023-04-06T10:13:00;6.43;;;3.90;;
51612;SDS011;37694;51.748;14.326;2023-04-06T10:15:28;5.85;;;4.38;;
51612;SDS011;37694;51.748;14.326;2023-04-06T10:17:55;7.60;;;3.85;;
51612;SDS011;37694;51.748;14.326;2023-04-06T10:23:08;5.32;;;4.18;;
51612;SDS011;37694;51.748;14.326;2023-04-06T10:25:35;5.88;;;3.85;;
51612;SDS011;37694;51.748;14.326;2023-04-06T10:28:04;5.43;;;4.38;;
51612;SDS011;37694;51.748;14.326;2023-04-06T10:30:32;6.00;;;4.20;;
51612;SDS011;37694;51.748;14.326;2023-04-06T10:33:16;7.90;;;3.90;;
51612;SDS011;37694;51.748;14.326;2023-04-06T10:35:43;5.80;;;4.50;;
51612;SDS011;37694;51.748;14.326;2023-04-06T10:38:09;9.00;;;4.43;;
51612;SDS011;37694;51.748;14.326;2023-04-06T10:40:39;9.95;;;4.50;;
51612;SDS011;37694;51.748;14.326;2023-04-06T10:43:07;7.55;;;4.40;;
51612;SDS011;37694;51.748;14.326;2023-04-06T10:45:43;8.90;;;4.05;;
51612;SDS011;37694;51.748;14.326;2023-04-06T10:48:13;6.47;;;4.40;;
51612;SDS011;37694;51.748;14.326;2023-04-06T10:50:41;7.28;;;4.15;;
51612;SDS011;37694;51.748;14.326;2023-04-06T10:53:08;9.15;;;4.28;;
51612;SDS011;37694;51.748;14.326;2023-04-06T10:55:34;7.03;;;4.00;;
51612;SDS011;37694;51.748;14.326;2023-04-06T10:58:06;6.40;;;3.80;;
51612;SDS011;37694;51.748;14.326;2023-04-06T11:00:32;7.57;;;3.80;;
51612;SDS011;37694;51.748;14.326;2023-04-06T11:03:00;6.50;;;4.07;;
51612;SDS011;37694;51.748;14.326;2023-04-06T11:05:27;4.72;;;3.78;;
51612;SDS011;37694;51.748;14.326;2023-04-06T11:07:53;10.10;;;4.30;;
51612;SDS011;37694;51.748;14.326;2023-04-06T11:10:21;5.63;;;4.13;;
51612;SDS011;37694;51.748;14.326;2023-04-06T11:12:52;6.93;;;3.53;;
51612;SDS011;37694;51.748;14.326;2023-04-06T11:15:19;7.50;;;3.20;;
51612;SDS011;37694;51.748;14.326;2023-04-06T11:17:45;5.35;;;3.67;;
51612;SDS011;37694;51.748;14.326;2023-04-06T11:20:11;7.47;;;4.07;;
51612;SDS011;37694;51.748;14.326;2023-04-06T11:22:52;6.10;;;3.92;;
51612;SDS011;37694;51.748;14.326;2023-04-06T11:25:18;5.13;;;4.10;;
51612;SDS011;37694;51.748;14.326;2023-04-06T11:27:44;5.32;;;3.85;;
51612;SDS011;37694;51.748;14.326;2023-04-06T11:30:12;5.57;;;3.78;;
51612;SDS011;37694;51.748;14.326;2023-04-06T11:32:39;6.00;;;3.47;;
51612;SDS011;37694;51.748;14.326;2023-04-06T11:35:07;4.93;;;3.47;;
51612;SDS011;37694;51.748;14.326;2023-04-06T11:37:46;4.10;;;3.13;;
51612;SDS011;37694;51.748;14.326;2023-04-06T11:40:11;7.13;;;3.60;;
51612;SDS011;37694;51.748;14.326;2023-04-06T11:42:37;5.57;;;4.05;;
51612;SDS011;37694;51.748;14.326;2023-04-06T11:45:03;5.07;;;4.00;;
51612;SDS011;37694;51.748;14.326;2023-04-06T11:47:30;5.07;;;3.10;;
51612;SDS011;37694;51.748;14.326;2023-04-06T11:50:07;5.32;;;3.58;;
51612;SDS011;37694;51.748;14.326;2023-04-06T11:55:09;4.03;;;3.35;;
51612;SDS011;37694;51.748;14.326;2023-04-06T11:57:40;5.10;;;3.72;;
51612;SDS011;37694;51.748;14.326;2023-04-06T12:00:10;3.92;;;3.28;;
51612;SDS011;37694;51.748;14.326;2023-04-06T12:02:37;5.13;;;3.75;;
51612;SDS011;37694;51.748;14.326;2023-04-06T12:05:04;5.03;;;3.70;;
51612;SDS011;37694;51.748;14.326;2023-04-06T12:07:31;3.70;;;3.17;;
51612;SDS011;37694;51.748;14.326;2023-04-06T12:10:01;3.78;;;2.92;;
51612;SDS011;37694;51.748;14.326;2023-04-06T12:12:28;2.72;;;2.50;;
51612;SDS011;37694;51.748;14.326;2023-04-06T12:14:53;2.72;;;2.50;;
51612;SDS011;37694;51.748;14.326;2023-04-06T12:17:20;2.92;;;1.85;;
51612;SDS011;37694;51.748;14.326;2023-04-06T12:19:46;2.20;;;1.73;;
51612;SDS011;37694;51.748;14.326;2023-04-06T12:22:11;2.00;;;1.90;;
51612;SDS011;37694;51.748;14.326;2023-04-06T12:24:37;1.70;;;1.60;;
51612;SDS011;37694;51.748;14.326;2023-04-06T12:27:03;1.42;;;1.33;;
51612;SDS011;37694;51.748;14.326;2023-04-06T12:29:29;1.40;;;1.20;;
51612;SDS011;37694;51.748;14.326;2023-04-06T12:31:55;1.00;;;1.00;;
51612;SDS011;37694;51.748;14.326;2023-04-06T12:34:21;0.75;;;0.75;;
51612;SDS011;37694;51.748;14.326;2023-04-06T12:36:46;0.70;;;0.70;;
51612;SDS011;37694;51.748;14.326;2023-04-06T12:39:12;0.65;;;0.65;;
51612;SDS011;37694;51.748;14.326;2023-04-06T12:41:38;1.67;;;0.90;;
51612;SDS011;37694;51.748;14.326;2023-04-06T12:44:07;0.70;;;0.70;;
51612;SDS011;37694;51.748;14.326;2023-04-06T12:46:32;0.80;;;0.80;;
51612;SDS011;37694;51.748;14.326;2023-04-06T12:48:58;0.63;;;0.63;;
51612;SDS011;37694;51.748;14.326;2023-04-06T12:51:25;2.30;;;0.50;;
51612;SDS011;37694;51.748;14.326;2023-04-06T12:53:53;0.43;;;0.43;;
51612;SDS011;37694;51.748;14.326;2023-04-06T12:56:19;0.50;;;0.50;;
51612;SDS011;37694;51.748;14.326;2023-04-06T12:58:46;0.57;;;0.57;;
51612;SDS011;37694;51.748;14.326;2023-04-06T13:01:11;0.35;;;0.35;;
51612;SDS011;37694;51.748;14.326;2023-04-06T13:03:38;0.47;;;0.47;;
51612;SDS011;37694;51.748;14.326;2023-04-06T13:06:07;0.32;;;0.32;;
51612;SDS011;37694;51.748;14.326;2023-04-06T13:08:33;0.40;;;0.40;;
51612;SDS011;37694;51.748;14.326;2023-04-06T13:11:00;0.73;;;0.60;;
51612;SDS011;37694;51.748;14.326;2023-04-06T13:13:26;0.47;;;0.47;;
51612;SDS011;37694;51.748;14.326;2023-04-06T13:15:53;0.32;;;0.32;;
51612;SDS011;37694;51.748;14.326;2023-04-06T13:18:20;0.75;;;0.40;;
51612;SDS011;37694;51.748;14.326;2023-04-06T13:20:47;0.38;;;0.38;;
51612;SDS011;37694;51.748;14.326;2023-04-06T13:23:13;0.63;;;0.45;;
51612;SDS011;37694;51.748;14.326;2023-04-06T13:25:39;0.40;;;0.40;;
51612;SDS011;37694;51.748;14.326;2023-04-06T13:28:05;0.40;;;0.40;;
51612;SDS011;37694;51.748;14.326;2023-04-06T13:30:31;0.50;;;0.50;;
51612;SDS011;37694;51.748;14.326;2023-04-06T13:32:57;0.40;;;0.40;;
51612;SDS011;37694;51.748;14.326;2023-04-06T13:35:22;0.70;;;0.70;;
51612;SDS011;37694;51.748;14.326;2023-04-06T13:37:48;1.25;;;0.65;;
51612;SDS011;37694;51.748;14.326;2023-04-06T13:40:16;0.65;;;0.55;;
51612;SDS011;37694;51.748;14.326;2023-04-06T13:42:42;0.52;;;0.52;;
51612;SDS011;37694;51.748;14.326;2023-04-06T13:45:10;1.95;;;0.40;;
51612;SDS011;37694;51.748;14.326;2023-04-06T13:47:36;0.50;;;0.50;;
51612;SDS011;37694;51.748;14.326;2023-04-06T13:50:02;0.85;;;0.85;;
51612;SDS011;37694;51.748;14.326;2023-04-06T13:52:29;0.60;;;0.60;;
51612;SDS011;37694;51.748;14.326;2023-04-06T13:54:55;0.40;;;0.40;;
51612;SDS011;37694;51.748;14.326;2023-04-06T13:57:21;0.73;;;0.50;;
51612;SDS011;37694;51.748;14.326;2023-04-06T13:59:46;0.50;;;0.50;;
51612;SDS011;37694;51.748;14.326;2023-04-06T14:02:14;0.80;;;0.60;;
51612;SDS011;37694;51.748;14.326;2023-04-06T14:04:40;1.20;;;0.68;;
51612;SDS011;37694;51.748;14.326;2023-04-06T14:07:06;0.90;;;0.43;;
51612;SDS011;37694;51.748;14.326;2023-04-06T14:09:32;2.92;;;0.50;;
51612;SDS011;37694;51.748;14.326;2023-04-06T14:11:58;0.50;;;0.50;;
51612;SDS011;37694;51.748;14.326;2023-04-06T14:14:25;2.17;;;0.50;;
51612;SDS011;37694;51.748;14.326;2023-04-06T14:16:51;4.00;;;0.80;;
51612;SDS011;37694;51.748;14.326;2023-04-06T14:19:17;1.00;;;0.50;;
51612;SDS011;37694;51.748;14.326;2023-04-06T14:21:46;3.30;;;0.52;;
51612;SDS011;37694;51.748;14.326;2023-04-06T14:24:13;1.45;;;0.60;;
51612;SDS011;37694;51.748;14.326;2023-04-06T14:26:39;3.40;;;0.40;;
51612;SDS011;37694;51.748;14.326;2023-04-06T14:29:06;0.38;;;0.30;;
51612;SDS011;37694;51.748;14.326;2023-04-06T14:31:33;1.67;;;0.35;;
51612;SDS011;37694;51.748;14.326;2023-04-06T14:34:00;0.22;;;0.20;;
51612;SDS011;37694;51.748;14.326;2023-04-06T14:36:27;0.25;;;0.25;;